sensor_id;sensor_type;location;lat;lon;timestamp;temperature;humidity
27226;DHT22;14732;51.074;3.788;2023-03-02T00:01:29;2.50;99.90
27226;DHT22;14732;51.074;3.788;2023-03-02T00:03:57;2.50;99.90
27226;DHT22;14732;51.074;3.788;2023-03-02T00:06:26;2.50;99.90
27226;DHT22;14732;51.074;3.788;2023-03-02T00:08:52;2.40;99.90
27226;DHT22;14732;51.074;3.788;2023-03-02T00:11:18;2.30;99.90
27226;DHT22;14732;51.074;3.788;2023-03-02T00:13:44;2.20;99.90
27226;DHT22;14732;51.074;3.788;2023-03-02T00:16:09;2.20;99.90
27226;DHT22;14732;51.074;3.788;2023-03-02T00:18:35;2.20;99.90
27226;DHT22;14732;51.074;3.788;2023-03-02T00:21:01;2.20;99.90
27226;DHT22;14732;51.074;3.788;2023-03-02T00:23:27;2.30;99.90
27226;DHT22;14732;51.074;3.788;2023-03-02T00:25:52;2.30;99.90
27226;DHT22;14732;51.074;3.788;2023-03-02T00:28:18;2.40;99.90
27226;DHT22;14732;51.074;3.788;2023-03-02T00:30:44;2.30;99.90
27226;DHT22;14732;51.074;3.788;2023-03-02T00:33:09;2.30;99.90
27226;DHT22;14732;51.074;3.788;2023-03-02T00:35:39;2.30;99.90
27226;DHT22;14732;51.074;3.788;2023-03-02T00:38:06;2.30;99.90
27226;DHT22;14732;51.074;3.788;2023-03-02T00:40:33;2.20;99.90
27226;DHT22;14732;51.074;3.788;2023-03-02T00:42:59;2.30;99.90
27226;DHT22;14732;51.074;3.788;2023-03-02T00:45:25;2.30;99.90
27226;DHT22;14732;51.074;3.788;2023-03-02T00:47:50;2.30;99.90
27226;DHT22;14732;51.074;3.788;2023-03-02T00:50:16;2.30;99.90
27226;DHT22;14732;51.074;3.788;2023-03-02T00:52:42;2.20;99.90
27226;DHT22;14732;51.074;3.788;2023-03-02T00:55:08;2.20;99.90
27226;DHT22;14732;51.074;3.788;2023-03-02T00:57:34;2.10;99.90
27226;DHT22;14732;51.074;3.788;2023-03-02T00:59:59;2.00;99.90
27226;DHT22;14732;51.074;3.788;2023-03-02T01:02:25;2.00;99.90
27226;DHT22;14732;51.074;3.788;2023-03-02T01:04:51;2.00;99.90
27226;DHT22;14732;51.074;3.788;2023-03-02T01:07:18;2.00;99.90
27226;DHT22;14732;51.074;3.788;2023-03-02T01:09:50;2.10;99.90
27226;DHT22;14732;51.074;3.788;2023-03-02T01:12:16;2.00;99.90
27226;DHT22;14732;51.074;3.788;2023-03-02T01:14:45;2.00;99.90
27226;DHT22;14732;51.074;3.788;2023-03-02T01:17:12;2.10;99.90
27226;DHT22;14732;51.074;3.788;2023-03-02T01:19:39;2.10;99.90
27226;DHT22;14732;51.074;3.788;2023-03-02T01:22:05;2.00;99.90
27226;DHT22;14732;51.074;3.788;2023-03-02T01:24:31;2.00;99.90
27226;DHT22;14732;51.074;3.788;2023-03-02T01:26:58;2.00;99.90
27226;DHT22;14732;51.074;3.788;2023-03-02T01:29:24;2.00;99.90
27226;DHT22;14732;51.074;3.788;2023-03-02T01:31:50;1.90;99.90
27226;DHT22;14732;51.074;3.788;2023-03-02T01:34:15;1.90;99.90
27226;DHT22;14732;51.074;3.788;2023-03-02T01:36:41;1.90;99.90
27226;DHT22;14732;51.074;3.788;2023-03-02T01:39:13;1.90;99.90
27226;DHT22;14732;51.074;3.788;2023-03-02T01:41:44;1.80;99.90
27226;DHT22;14732;51.074;3.788;2023-03-02T01:44:43;1.80;99.90
27226;DHT22;14732;51.074;3.788;2023-03-02T01:49:45;1.70;99.90
27226;DHT22;14732;51.074;3.788;2023-03-02T01:52:12;1.80;99.90
27226;DHT22;14732;51.074;3.788;2023-03-02T01:54:41;1.80;99.90
27226;DHT22;14732;51.074;3.788;2023-03-02T01:57:08;1.80;99.90
27226;DHT22;14732;51.074;3.788;2023-03-02T01:59:35;1.80;99.90
27226;DHT22;14732;51.074;3.788;2023-03-02T02:02:04;1.80;99.90
27226;DHT22;14732;51.074;3.788;2023-03-02T02:04:31;1.80;99.90
27226;DHT22;14732;51.074;3.788;2023-03-02T02:07:00;1.70;99.90
27226;DHT22;14732;51.074;3.788;2023-03-02T02:09:29;1.70;99.90
27226;DHT22;14732;51.074;3.788;2023-03-02T02:11:55;1.70;99.90
27226;DHT22;14732;51.074;3.788;2023-03-02T02:14:21;1.60;99.90
27226;DHT22;14732;51.074;3.788;2023-03-02T02:16:47;1.60;99.90
27226;DHT22;14732;51.074;3.788;2023-03-02T02:21:43;1.50;99.90
27226;DHT22;14732;51.074;3.788;2023-03-02T02:24:13;1.60;99.90
27226;DHT22;14732;51.074;3.788;2023-03-02T02:26:45;1.60;99.90
27226;DHT22;14732;51.074;3.788;2023-03-02T02:29:16;1.40;99.90
27226;DHT22;14732;51.074;3.788;2023-03-02T02:34:38;1.30;99.90
27226;DHT22;14732;51.074;3.788;2023-03-02T02:37:12;1.30;99.90
27226;DHT22;14732;51.074;3.788;2023-03-02T02:39:43;1.30;99.90
27226;DHT22;14732;51.074;3.788;2023-03-02T02:42:19;1.30;99.90
27226;DHT22;14732;51.074;3.788;2023-03-02T02:44:46;1.30;99.90
27226;DHT22;14732;51.074;3.788;2023-03-02T02:47:18;1.30;99.90
27226;DHT22;14732;51.074;3.788;2023-03-02T02:49:46;1.40;99.90
27226;DHT22;14732;51.074;3.788;2023-03-02T02:52:16;1.40;99.90
27226;DHT22;14732;51.074;3.788;2023-03-02T02:54:45;1.40;99.90
27226;DHT22;14732;51.074;3.788;2023-03-02T02:57:12;1.40;99.90
27226;DHT22;14732;51.074;3.788;2023-03-02T02:59:49;1.50;99.90
27226;DHT22;14732;51.074;3.788;2023-03-02T03:02:22;1.40;99.90
27226;DHT22;14732;51.074;3.788;2023-03-02T03:04:48;1.40;99.90
27226;DHT22;14732;51.074;3.788;2023-03-02T03:07:19;1.40;99.90
27226;DHT22;14732;51.074;3.788;2023-03-02T03:09:50;1.40;99.90
27226;DHT22;14732;51.074;3.788;2023-03-02T03:12:21;1.30;99.90
27226;DHT22;14732;51.074;3.788;2023-03-02T03:14:47;1.30;99.90
27226;DHT22;14732;51.074;3.788;2023-03-02T03:17:13;1.30;99.90
27226;DHT22;14732;51.074;3.788;2023-03-02T03:19:41;1.20;99.90
27226;DHT22;14732;51.074;3.788;2023-03-02T03:22:07;1.30;99.90
27226;DHT22;14732;51.074;3.788;2023-03-02T03:24:37;1.30;99.90
27226;DHT22;14732;51.074;3.788;2023-03-02T03:27:04;1.30;99.90
27226;DHT22;14732;51.074;3.788;2023-03-02T03:29:31;1.40;99.90
27226;DHT22;14732;51.074;3.788;2023-03-02T03:31:58;1.30;99.90
27226;DHT22;14732;51.074;3.788;2023-03-02T03:34:25;1.30;99.90
27226;DHT22;14732;51.074;3.788;2023-03-02T03:36:51;1.30;99.90
27226;DHT22;14732;51.074;3.788;2023-03-02T03:39:17;1.30;99.90
27226;DHT22;14732;51.074;3.788;2023-03-02T03:41:43;1.30;99.90
27226;DHT22;14732;51.074;3.788;2023-03-02T03:44:09;1.30;99.90
27226;DHT22;14732;51.074;3.788;2023-03-02T03:46:35;1.30;99.90
27226;DHT22;14732;51.074;3.788;2023-03-02T03:49:02;1.30;99.90
27226;DHT22;14732;51.074;3.788;2023-03-02T03:51:28;1.30;99.90
27226;DHT22;14732;51.074;3.788;2023-03-02T03:54:02;1.30;99.90
27226;DHT22;14732;51.074;3.788;2023-03-02T03:56:30;1.20;99.90
27226;DHT22;14732;51.074;3.788;2023-03-02T03:58:58;1.30;99.90
27226;DHT22;14732;51.074;3.788;2023-03-02T04:04:03;1.10;99.90
27226;DHT22;14732;51.074;3.788;2023-03-02T04:06:29;1.10;99.90
27226;DHT22;14732;51.074;3.788;2023-03-02T04:08:55;1.00;99.90
27226;DHT22;14732;51.074;3.788;2023-03-02T04:11:21;1.00;99.90
27226;DHT22;14732;51.074;3.788;2023-03-02T04:13:47;1.00;99.90
27226;DHT22;14732;51.074;3.788;2023-03-02T04:16:13;1.00;99.90
27226;DHT22;14732;51.074;3.788;2023-03-02T04:18:39;0.90;99.90
27226;DHT22;14732;51.074;3.788;2023-03-02T04:21:05;0.90;99.90
27226;DHT22;14732;51.074;3.788;2023-03-02T04:23:30;0.90;99.90
27226;DHT22;14732;51.074;3.788;2023-03-02T04:25:56;0.90;99.90
27226;DHT22;14732;51.074;3.788;2023-03-02T04:28:22;0.90;99.90
27226;DHT22;14732;51.074;3.788;2023-03-02T04:30:47;0.80;99.90
27226;DHT22;14732;51.074;3.788;2023-03-02T04:33:13;0.70;99.90
27226;DHT22;14732;51.074;3.788;2023-03-02T04:35:39;0.60;99.90
27226;DHT22;14732;51.074;3.788;2023-03-02T04:38:04;0.70;99.90
27226;DHT22;14732;51.074;3.788;2023-03-02T04:40:30;0.70;99.90
27226;DHT22;14732;51.074;3.788;2023-03-02T04:42:56;0.60;99.90
27226;DHT22;14732;51.074;3.788;2023-03-02T04:45:21;0.70;99.90
27226;DHT22;14732;51.074;3.788;2023-03-02T04:47:47;0.70;99.90
27226;DHT22;14732;51.074;3.788;2023-03-02T04:50:13;0.70;99.90
27226;DHT22;14732;51.074;3.788;2023-03-02T04:52:39;0.80;99.90
27226;DHT22;14732;51.074;3.788;2023-03-02T04:55:06;0.80;99.90
27226;DHT22;14732;51.074;3.788;2023-03-02T04:57:32;0.80;99.90
27226;DHT22;14732;51.074;3.788;2023-03-02T04:59:58;0.90;99.90
27226;DHT22;14732;51.074;3.788;2023-03-02T05:02:24;0.90;99.90
27226;DHT22;14732;51.074;3.788;2023-03-02T05:04:49;0.80;99.90
27226;DHT22;14732;51.074;3.788;2023-03-02T05:07:15;0.80;99.90
27226;DHT22;14732;51.074;3.788;2023-03-02T05:09:41;0.80;99.90
27226;DHT22;14732;51.074;3.788;2023-03-02T05:12:07;0.80;99.90
27226;DHT22;14732;51.074;3.788;2023-03-02T05:14:33;0.90;99.90
27226;DHT22;14732;51.074;3.788;2023-03-02T05:16:59;0.80;99.90
27226;DHT22;14732;51.074;3.788;2023-03-02T05:19:25;0.80;99.90
27226;DHT22;14732;51.074;3.788;2023-03-02T05:21:50;0.90;99.90
27226;DHT22;14732;51.074;3.788;2023-03-02T05:24:16;0.90;99.90
27226;DHT22;14732;51.074;3.788;2023-03-02T05:26:42;0.70;99.90
27226;DHT22;14732;51.074;3.788;2023-03-02T05:29:08;0.90;99.90
27226;DHT22;14732;51.074;3.788;2023-03-02T05:31:36;0.90;99.90
27226;DHT22;14732;51.074;3.788;2023-03-02T05:34:04;1.00;99.90
27226;DHT22;14732;51.074;3.788;2023-03-02T05:36:30;0.80;99.90
27226;DHT22;14732;51.074;3.788;2023-03-02T05:38:56;0.70;99.90
27226;DHT22;14732;51.074;3.788;2023-03-02T05:41:22;0.70;99.90
27226;DHT22;14732;51.074;3.788;2023-03-02T05:43:48;0.80;99.90
27226;DHT22;14732;51.074;3.788;2023-03-02T05:46:14;0.70;99.90
27226;DHT22;14732;51.074;3.788;2023-03-02T05:48:41;0.80;99.90
27226;DHT22;14732;51.074;3.788;2023-03-02T05:51:07;0.80;99.90
27226;DHT22;14732;51.074;3.788;2023-03-02T05:53:33;0.90;99.90
27226;DHT22;14732;51.074;3.788;2023-03-02T05:55:58;0.80;99.90
27226;DHT22;14732;51.074;3.788;2023-03-02T05:58:24;0.80;99.90
27226;DHT22;14732;51.074;3.788;2023-03-02T06:00:50;0.90;99.90
27226;DHT22;14732;51.074;3.788;2023-03-02T06:03:16;0.80;99.90
27226;DHT22;14732;51.074;3.788;2023-03-02T06:05:42;0.90;99.90
27226;DHT22;14732;51.074;3.788;2023-03-02T06:08:08;0.90;99.90
27226;DHT22;14732;51.074;3.788;2023-03-02T06:10:33;0.80;99.90
27226;DHT22;14732;51.074;3.788;2023-03-02T06:12:59;0.80;99.90
27226;DHT22;14732;51.074;3.788;2023-03-02T06:15:25;0.80;99.90
27226;DHT22;14732;51.074;3.788;2023-03-02T06:17:54;0.80;99.90
27226;DHT22;14732;51.074;3.788;2023-03-02T06:20:20;0.90;99.90
27226;DHT22;14732;51.074;3.788;2023-03-02T06:22:46;0.90;99.90
27226;DHT22;14732;51.074;3.788;2023-03-02T06:25:18;0.90;99.90
27226;DHT22;14732;51.074;3.788;2023-03-02T06:27:45;0.90;99.90
27226;DHT22;14732;51.074;3.788;2023-03-02T06:30:14;0.90;99.90
27226;DHT22;14732;51.074;3.788;2023-03-02T06:32:40;0.80;99.90
27226;DHT22;14732;51.074;3.788;2023-03-02T06:35:07;0.90;99.90
27226;DHT22;14732;51.074;3.788;2023-03-02T06:37:33;0.90;99.90
27226;DHT22;14732;51.074;3.788;2023-03-02T06:39:59;0.90;99.90
27226;DHT22;14732;51.074;3.788;2023-03-02T06:42:26;0.80;99.90
27226;DHT22;14732;51.074;3.788;2023-03-02T06:44:52;0.80;99.90
27226;DHT22;14732;51.074;3.788;2023-03-02T06:47:20;0.80;99.90
27226;DHT22;14732;51.074;3.788;2023-03-02T06:49:46;0.90;99.90
27226;DHT22;14732;51.074;3.788;2023-03-02T06:52:12;1.00;99.90
27226;DHT22;14732;51.074;3.788;2023-03-02T06:54:39;1.00;99.90
27226;DHT22;14732;51.074;3.788;2023-03-02T06:57:05;1.10;99.90
27226;DHT22;14732;51.074;3.788;2023-03-02T06:59:31;1.30;99.90
27226;DHT22;14732;51.074;3.788;2023-03-02T07:01:57;1.30;99.90
27226;DHT22;14732;51.074;3.788;2023-03-02T07:04:22;1.30;99.90
27226;DHT22;14732;51.074;3.788;2023-03-02T07:06:48;1.40;99.90
27226;DHT22;14732;51.074;3.788;2023-03-02T07:09:14;1.40;99.90
27226;DHT22;14732;51.074;3.788;2023-03-02T07:11:40;1.40;99.90
27226;DHT22;14732;51.074;3.788;2023-03-02T07:14:05;1.30;99.90
27226;DHT22;14732;51.074;3.788;2023-03-02T07:16:32;1.40;99.90
27226;DHT22;14732;51.074;3.788;2023-03-02T07:18:58;1.30;99.90
27226;DHT22;14732;51.074;3.788;2023-03-02T07:21:24;1.30;99.90
27226;DHT22;14732;51.074;3.788;2023-03-02T07:23:50;1.40;99.90
27226;DHT22;14732;51.074;3.788;2023-03-02T07:26:15;1.50;99.90
27226;DHT22;14732;51.074;3.788;2023-03-02T07:28:41;1.50;99.90
27226;DHT22;14732;51.074;3.788;2023-03-02T07:31:08;1.40;99.90
27226;DHT22;14732;51.074;3.788;2023-03-02T07:33:35;1.30;99.90
27226;DHT22;14732;51.074;3.788;2023-03-02T07:36:02;1.80;99.90
27226;DHT22;14732;51.074;3.788;2023-03-02T07:38:27;2.60;99.90
27226;DHT22;14732;51.074;3.788;2023-03-02T07:40:56;3.00;99.90
27226;DHT22;14732;51.074;3.788;2023-03-02T07:43:22;3.40;99.90
27226;DHT22;14732;51.074;3.788;2023-03-02T07:45:50;3.30;99.90
27226;DHT22;14732;51.074;3.788;2023-03-02T07:48:17;3.00;99.90
27226;DHT22;14732;51.074;3.788;2023-03-02T07:50:45;2.70;99.90
27226;DHT22;14732;51.074;3.788;2023-03-02T07:53:11;2.80;99.90
27226;DHT22;14732;51.074;3.788;2023-03-02T07:55:40;2.60;99.90
27226;DHT22;14732;51.074;3.788;2023-03-02T07:58:06;2.90;99.90
27226;DHT22;14732;51.074;3.788;2023-03-02T08:00:32;3.40;99.90
27226;DHT22;14732;51.074;3.788;2023-03-02T08:02:57;4.10;99.90
27226;DHT22;14732;51.074;3.788;2023-03-02T08:05:23;3.90;99.90
27226;DHT22;14732;51.074;3.788;2023-03-02T08:07:49;4.60;99.90
27226;DHT22;14732;51.074;3.788;2023-03-02T08:10:16;5.20;99.90
27226;DHT22;14732;51.074;3.788;2023-03-02T08:12:42;5.80;99.90
27226;DHT22;14732;51.074;3.788;2023-03-02T08:15:10;6.10;99.90
27226;DHT22;14732;51.074;3.788;2023-03-02T08:17:37;5.80;99.90
27226;DHT22;14732;51.074;3.788;2023-03-02T08:20:04;5.60;99.90
27226;DHT22;14732;51.074;3.788;2023-03-02T08:22:32;5.90;99.90
27226;DHT22;14732;51.074;3.788;2023-03-02T08:24:59;6.20;99.90
27226;DHT22;14732;51.074;3.788;2023-03-02T08:27:24;6.00;99.90
27226;DHT22;14732;51.074;3.788;2023-03-02T08:29:50;6.60;99.90
27226;DHT22;14732;51.074;3.788;2023-03-02T08:32:16;7.10;99.90
27226;DHT22;14732;51.074;3.788;2023-03-02T08:34:42;6.80;99.90
27226;DHT22;14732;51.074;3.788;2023-03-02T08:37:09;7.30;99.90
27226;DHT22;14732;51.074;3.788;2023-03-02T08:39:35;7.00;99.90
27226;DHT22;14732;51.074;3.788;2023-03-02T08:42:01;7.50;99.90
27226;DHT22;14732;51.074;3.788;2023-03-02T08:44:27;8.40;99.90
27226;DHT22;14732;51.074;3.788;2023-03-02T08:46:53;9.10;99.90
27226;DHT22;14732;51.074;3.788;2023-03-02T08:49:20;9.40;99.90
27226;DHT22;14732;51.074;3.788;2023-03-02T08:51:47;10.00;99.90
27226;DHT22;14732;51.074;3.788;2023-03-02T08:54:19;9.70;99.90
27226;DHT22;14732;51.074;3.788;2023-03-02T08:56:46;10.10;99.90
27226;DHT22;14732;51.074;3.788;2023-03-02T08:59:12;11.50;99.90
27226;DHT22;14732;51.074;3.788;2023-03-02T09:01:40;12.10;99.90
27226;DHT22;14732;51.074;3.788;2023-03-02T09:04:08;13.90;99.90
27226;DHT22;14732;51.074;3.788;2023-03-02T09:06:39;13.10;99.90
27226;DHT22;14732;51.074;3.788;2023-03-02T09:09:06;14.20;99.90
27226;DHT22;14732;51.074;3.788;2023-03-02T09:11:32;14.60;99.90
27226;DHT22;14732;51.074;3.788;2023-03-02T09:13:59;17.10;99.90
27226;DHT22;14732;51.074;3.788;2023-03-02T09:16:25;17.20;98.10
27226;DHT22;14732;51.074;3.788;2023-03-02T09:18:53;17.00;97.30
27226;DHT22;14732;51.074;3.788;2023-03-02T09:21:19;18.30;94.50
27226;DHT22;14732;51.074;3.788;2023-03-02T09:23:45;18.70;93.90
27226;DHT22;14732;51.074;3.788;2023-03-02T09:26:11;18.30;93.50
27226;DHT22;14732;51.074;3.788;2023-03-02T09:28:37;17.50;91.90
27226;DHT22;14732;51.074;3.788;2023-03-02T09:31:07;16.80;93.60
27226;DHT22;14732;51.074;3.788;2023-03-02T09:33:34;15.00;95.50
27226;DHT22;14732;51.074;3.788;2023-03-02T09:36:05;14.10;97.40
27226;DHT22;14732;51.074;3.788;2023-03-02T09:38:31;14.90;96.70
27226;DHT22;14732;51.074;3.788;2023-03-02T09:52:39;11.70;99.40
27226;DHT22;14732;51.074;3.788;2023-03-02T09:55:14;9.80;99.90
27226;DHT22;14732;51.074;3.788;2023-03-02T09:57:42;9.00;99.90
27226;DHT22;14732;51.074;3.788;2023-03-02T10:02:59;8.10;99.90
27226;DHT22;14732;51.074;3.788;2023-03-02T10:05:40;7.70;99.90
27226;DHT22;14732;51.074;3.788;2023-03-02T10:08:25;7.60;99.90
27226;DHT22;14732;51.074;3.788;2023-03-02T10:11:36;7.20;99.90
27226;DHT22;14732;51.074;3.788;2023-03-02T10:14:41;6.80;99.90
27226;DHT22;14732;51.074;3.788;2023-03-02T10:17:22;6.50;99.90
27226;DHT22;14732;51.074;3.788;2023-03-02T10:20:04;6.40;99.90
27226;DHT22;14732;51.074;3.788;2023-03-02T10:22:40;6.60;99.90
27226;DHT22;14732;51.074;3.788;2023-03-02T10:28:20;6.80;99.90
27226;DHT22;14732;51.074;3.788;2023-03-02T10:31:10;6.50;99.90
27226;DHT22;14732;51.074;3.788;2023-03-02T10:33:39;6.70;99.90
27226;DHT22;14732;51.074;3.788;2023-03-02T10:38:45;7.00;99.90
27226;DHT22;14732;51.074;3.788;2023-03-02T10:41:16;6.70;99.90
27226;DHT22;14732;51.074;3.788;2023-03-02T10:44:11;6.60;99.90
27226;DHT22;14732;51.074;3.788;2023-03-02T10:46:43;6.60;99.90
27226;DHT22;14732;51.074;3.788;2023-03-02T10:49:30;6.60;99.90
27226;DHT22;14732;51.074;3.788;2023-03-02T10:52:05;6.70;99.90
27226;DHT22;14732;51.074;3.788;2023-03-02T10:54:35;6.80;99.90
27226;DHT22;14732;51.074;3.788;2023-03-02T10:57:16;6.60;99.90
27226;DHT22;14732;51.074;3.788;2023-03-02T10:59:47;6.70;99.90
27226;DHT22;14732;51.074;3.788;2023-03-02T11:02:21;6.70;99.90
27226;DHT22;14732;51.074;3.788;2023-03-02T11:04:56;6.40;99.90
27226;DHT22;14732;51.074;3.788;2023-03-02T11:07:27;6.60;99.90
27226;DHT22;14732;51.074;3.788;2023-03-02T11:10:18;6.80;99.90
27226;DHT22;14732;51.074;3.788;2023-03-02T11:12:47;7.10;99.90
27226;DHT22;14732;51.074;3.788;2023-03-02T11:18:12;6.60;99.90
27226;DHT22;14732;51.074;3.788;2023-03-02T11:20:46;6.70;99.90
27226;DHT22;14732;51.074;3.788;2023-03-02T11:25:57;7.10;99.90
27226;DHT22;14732;51.074;3.788;2023-03-02T11:31:09;7.30;99.90
27226;DHT22;14732;51.074;3.788;2023-03-02T11:34:08;7.40;99.90
27226;DHT22;14732;51.074;3.788;2023-03-02T11:39:15;7.70;99.90
27226;DHT22;14732;51.074;3.788;2023-03-02T11:41:44;7.50;99.90
27226;DHT22;14732;51.074;3.788;2023-03-02T11:44:18;7.50;99.90
27226;DHT22;14732;51.074;3.788;2023-03-02T11:46:56;7.70;99.90
27226;DHT22;14732;51.074;3.788;2023-03-02T11:49:25;7.80;99.90
27226;DHT22;14732;51.074;3.788;2023-03-02T11:51:55;8.00;99.90
27226;DHT22;14732;51.074;3.788;2023-03-02T11:54:35;7.90;99.90
27226;DHT22;14732;51.074;3.788;2023-03-02T11:57:05;7.80;99.90
27226;DHT22;14732;51.074;3.788;2023-03-02T11:59:35;7.70;99.90
27226;DHT22;14732;51.074;3.788;2023-03-02T12:02:01;7.50;99.90
27226;DHT22;14732;51.074;3.788;2023-03-02T12:04:33;7.50;99.90
27226;DHT22;14732;51.074;3.788;2023-03-02T12:07:03;7.70;99.90
27226;DHT22;14732;51.074;3.788;2023-03-02T12:09:39;7.90;99.90
27226;DHT22;14732;51.074;3.788;2023-03-02T12:14:48;8.40;99.90
27226;DHT22;14732;51.074;3.788;2023-03-02T12:20:23;7.90;99.90
27226;DHT22;14732;51.074;3.788;2023-03-02T12:22:52;8.10;99.90
27226;DHT22;14732;51.074;3.788;2023-03-02T12:27:49;8.30;99.90
27226;DHT22;14732;51.074;3.788;2023-03-02T12:32:57;8.30;99.90
27226;DHT22;14732;51.074;3.788;2023-03-02T12:35:24;8.30;99.90
27226;DHT22;14732;51.074;3.788;2023-03-02T12:40:31;8.50;99.90
27226;DHT22;14732;51.074;3.788;2023-03-02T12:43:23;8.60;99.90
27226;DHT22;14732;51.074;3.788;2023-03-02T12:46:05;8.70;99.90
27226;DHT22;14732;51.074;3.788;2023-03-02T12:51:29;8.50;99.90
27226;DHT22;14732;51.074;3.788;2023-03-02T12:54:13;8.60;99.90
27226;DHT22;14732;51.074;3.788;2023-03-02T12:56:39;8.70;99.90
27226;DHT22;14732;51.074;3.788;2023-03-02T12:59:05;8.70;99.90
27226;DHT22;14732;51.074;3.788;2023-03-02T13:01:31;9.00;99.90
27226;DHT22;14732;51.074;3.788;2023-03-02T13:03:58;9.00;99.90
27226;DHT22;14732;51.074;3.788;2023-03-02T13:06:29;9.10;99.90
27226;DHT22;14732;51.074;3.788;2023-03-02T13:08:58;9.10;99.90
27226;DHT22;14732;51.074;3.788;2023-03-02T13:11:32;8.90;99.90
27226;DHT22;14732;51.074;3.788;2023-03-02T13:14:12;8.90;99.90
27226;DHT22;14732;51.074;3.788;2023-03-02T13:16:59;9.10;99.90
27226;DHT22;14732;51.074;3.788;2023-03-02T13:19:30;9.30;99.90
27226;DHT22;14732;51.074;3.788;2023-03-02T13:21:59;9.00;99.90
27226;DHT22;14732;51.074;3.788;2023-03-02T13:24:45;9.10;99.90
27226;DHT22;14732;51.074;3.788;2023-03-02T13:27:23;9.00;99.90
27226;DHT22;14732;51.074;3.788;2023-03-02T13:29:50;9.00;99.90
27226;DHT22;14732;51.074;3.788;2023-03-02T13:32:24;9.10;99.90
27226;DHT22;14732;51.074;3.788;2023-03-02T13:34:53;9.00;99.90
27226;DHT22;14732;51.074;3.788;2023-03-02T13:39:55;9.20;99.90
27226;DHT22;14732;51.074;3.788;2023-03-02T13:42:39;9.20;99.90
27226;DHT22;14732;51.074;3.788;2023-03-02T13:47:54;9.10;99.90
27226;DHT22;14732;51.074;3.788;2023-03-02T13:50:24;9.10;99.90
27226;DHT22;14732;51.074;3.788;2023-03-02T13:52:54;8.90;99.90
27226;DHT22;14732;51.074;3.788;2023-03-02T13:55:21;9.00;99.90
27226;DHT22;14732;51.074;3.788;2023-03-02T13:57:48;9.10;99.90
27226;DHT22;14732;51.074;3.788;2023-03-02T14:00:19;9.10;99.90
27226;DHT22;14732;51.074;3.788;2023-03-02T14:02:47;9.10;99.90
27226;DHT22;14732;51.074;3.788;2023-03-02T14:05:17;9.10;99.90
27226;DHT22;14732;51.074;3.788;2023-03-02T14:07:44;9.20;99.90
27226;DHT22;14732;51.074;3.788;2023-03-02T14:10:13;9.10;99.90
27226;DHT22;14732;51.074;3.788;2023-03-02T14:12:40;9.20;99.90
27226;DHT22;14732;51.074;3.788;2023-03-02T14:15:11;9.10;99.90
27226;DHT22;14732;51.074;3.788;2023-03-02T14:17:38;9.00;99.90
27226;DHT22;14732;51.074;3.788;2023-03-02T14:20:04;9.20;99.90
27226;DHT22;14732;51.074;3.788;2023-03-02T14:22:30;9.30;99.90
27226;DHT22;14732;51.074;3.788;2023-03-02T14:24:56;9.20;99.90
27226;DHT22;14732;51.074;3.788;2023-03-02T14:27:24;9.10;99.90
27226;DHT22;14732;51.074;3.788;2023-03-02T14:29:53;8.90;99.90
27226;DHT22;14732;51.074;3.788;2023-03-02T14:32:19;9.00;99.90
27226;DHT22;14732;51.074;3.788;2023-03-02T14:34:46;9.20;99.90
27226;DHT22;14732;51.074;3.788;2023-03-02T14:37:17;9.20;99.90
27226;DHT22;14732;51.074;3.788;2023-03-02T14:39:51;9.30;99.90
27226;DHT22;14732;51.074;3.788;2023-03-02T14:42:19;9.20;99.90
27226;DHT22;14732;51.074;3.788;2023-03-02T14:44:47;9.20;99.90
27226;DHT22;14732;51.074;3.788;2023-03-02T14:47:14;9.20;99.90
27226;DHT22;14732;51.074;3.788;2023-03-02T14:49:42;9.20;99.90
27226;DHT22;14732;51.074;3.788;2023-03-02T14:52:39;9.20;99.90
27226;DHT22;14732;51.074;3.788;2023-03-02T14:57:53;9.30;99.90
27226;DHT22;14732;51.074;3.788;2023-03-02T15:00:20;9.40;99.90
27226;DHT22;14732;51.074;3.788;2023-03-02T15:02:47;9.40;99.90
27226;DHT22;14732;51.074;3.788;2023-03-02T15:05:13;9.40;99.90
27226;DHT22;14732;51.074;3.788;2023-03-02T15:07:38;9.50;99.90
27226;DHT22;14732;51.074;3.788;2023-03-02T15:10:06;9.50;99.90
27226;DHT22;14732;51.074;3.788;2023-03-02T15:12:33;9.60;99.90
27226;DHT22;14732;51.074;3.788;2023-03-02T15:14:59;9.60;99.90
27226;DHT22;14732;51.074;3.788;2023-03-02T15:17:24;9.40;99.90
27226;DHT22;14732;51.074;3.788;2023-03-02T15:19:50;9.30;99.90
27226;DHT22;14732;51.074;3.788;2023-03-02T15:22:16;9.20;99.90
27226;DHT22;14732;51.074;3.788;2023-03-02T15:24:42;9.20;99.90
27226;DHT22;14732;51.074;3.788;2023-03-02T15:27:08;9.20;99.90
27226;DHT22;14732;51.074;3.788;2023-03-02T15:29:35;9.20;99.90
27226;DHT22;14732;51.074;3.788;2023-03-02T15:32:01;9.30;99.90
27226;DHT22;14732;51.074;3.788;2023-03-02T15:34:28;9.20;99.90
27226;DHT22;14732;51.074;3.788;2023-03-02T15:36:53;9.20;99.90
27226;DHT22;14732;51.074;3.788;2023-03-02T15:39:20;9.20;99.90
27226;DHT22;14732;51.074;3.788;2023-03-02T15:41:46;9.10;99.90
27226;DHT22;14732;51.074;3.788;2023-03-02T15:44:17;9.10;99.90
27226;DHT22;14732;51.074;3.788;2023-03-02T15:46:47;9.20;99.90
27226;DHT22;14732;51.074;3.788;2023-03-02T15:49:14;9.30;99.90
27226;DHT22;14732;51.074;3.788;2023-03-02T15:51:42;9.20;99.90
27226;DHT22;14732;51.074;3.788;2023-03-02T15:54:07;9.30;99.90
27226;DHT22;14732;51.074;3.788;2023-03-02T15:56:36;9.30;99.90
27226;DHT22;14732;51.074;3.788;2023-03-02T15:59:05;9.10;99.90
27226;DHT22;14732;51.074;3.788;2023-03-02T16:01:31;8.90;99.90
27226;DHT22;14732;51.074;3.788;2023-03-02T16:03:58;9.00;99.90
27226;DHT22;14732;51.074;3.788;2023-03-02T16:06:25;9.20;99.90
27226;DHT22;14732;51.074;3.788;2023-03-02T16:08:52;9.30;99.90
27226;DHT22;14732;51.074;3.788;2023-03-02T16:11:18;9.20;99.90
27226;DHT22;14732;51.074;3.788;2023-03-02T16:13:50;9.20;99.90
27226;DHT22;14732;51.074;3.788;2023-03-02T16:16:18;9.20;99.90
27226;DHT22;14732;51.074;3.788;2023-03-02T16:18:56;9.20;99.90
27226;DHT22;14732;51.074;3.788;2023-03-02T16:21:24;9.30;99.90
27226;DHT22;14732;51.074;3.788;2023-03-02T16:23:52;9.20;99.90
27226;DHT22;14732;51.074;3.788;2023-03-02T16:26:20;9.20;99.90
27226;DHT22;14732;51.074;3.788;2023-03-02T16:28:47;9.10;99.90
27226;DHT22;14732;51.074;3.788;2023-03-02T16:31:17;9.10;99.90
27226;DHT22;14732;51.074;3.788;2023-03-02T16:33:43;9.00;99.90
27226;DHT22;14732;51.074;3.788;2023-03-02T16:36:10;9.00;99.90
27226;DHT22;14732;51.074;3.788;2023-03-02T16:38:37;9.00;99.90
27226;DHT22;14732;51.074;3.788;2023-03-02T16:41:14;9.00;99.90
27226;DHT22;14732;51.074;3.788;2023-03-02T16:43:51;9.00;99.90
27226;DHT22;14732;51.074;3.788;2023-03-02T16:46:19;8.90;99.90
27226;DHT22;14732;51.074;3.788;2023-03-02T16:48:47;9.00;99.90
27226;DHT22;14732;51.074;3.788;2023-03-02T16:51:15;8.90;99.90
27226;DHT22;14732;51.074;3.788;2023-03-02T16:53:40;8.90;99.90
27226;DHT22;14732;51.074;3.788;2023-03-02T16:56:07;8.90;99.90
27226;DHT22;14732;51.074;3.788;2023-03-02T16:58:33;8.80;99.90
27226;DHT22;14732;51.074;3.788;2023-03-02T17:01:03;8.80;99.90